Time;durP1;ratioP1;P1;durP2;ratioP2;P2;SDS_P1;SDS_P2;PMS_P1;PMS_P2;Temp;Humidity;BMP_temperature;BMP_pressure;BME280_temperature;BME280_humidity;BME280_pressure;Samples;Min_cycle;Max_cycle;Signal;HPM_P1;HPM_P2
2022/11/12 00:00:59;;;;;;;15.03;13.63;;;;;;;11.48;100.00;-17773.97;5073348;28;20185;-58
2022/11/12 00:03:27;;;;;;;13.43;12.43;;;;;;;11.42;100.00;-17772.81;5073448;28;20214;-58
2022/11/12 00:05:54;;;;;;;14.17;12.93;;;;;;;11.49;100.00;-17774.22;5073484;28;20196;-58
2022/11/12 00:08:21;;;;;;;14.33;13.13;;;;;;;11.56;100.00;-17775.88;5073133;28;20181;-59
2022/11/12 00:10:48;;;;;;;13.17;12.37;;;;;;;11.52;100.00;-17774.94;5073166;28;20181;-57
2022/11/12 00:13:15;;;;;;;13.50;12.40;;;;;;;11.52;100.00;-17774.94;5073086;28;20272;-58
2022/11/12 00:15:42;;;;;;;12.67;11.67;;;;;;;11.57;100.00;-17776.09;5073006;28;20193;-58
2022/11/12 00:18:09;;;;;;;12.53;11.37;;;;;;;11.62;100.00;-17777.41;5073176;28;20292;-59
2022/11/12 00:20:37;;;;;;;13.20;12.10;;;;;;;11.61;100.00;-17777.06;5073086;28;20635;-58
2022/11/12 00:23:04;;;;;;;16.47;13.43;;;;;;;11.54;100.00;-18093.66;5073125;28;20188;-59
2022/11/12 00:25:31;;;;;;;13.27;12.20;;;;;;;11.63;100.00;-18095.84;5072911;28;20185;-57
2022/11/12 00:28:03;;;;;;;14.00;12.70;;;;;;;11.73;100.00;-18100.13;5073074;28;20556;-57
2022/11/12 00:30:30;;;;;;;13.63;12.47;;;;;;;11.74;100.00;-18100.47;5072662;28;20181;-58
2022/11/12 00:32:57;;;;;;;13.17;11.93;;;;;;;11.77;100.00;-18101.19;5072605;28;20235;-58
2022/11/12 00:35:24;;;;;;;13.80;12.47;;;;;;;11.70;100.00;-18099.38;5072640;28;20188;-58
2022/11/12 00:37:56;;;;;;;13.37;12.27;;;;;;;11.66;100.00;-18098.53;5071477;28;20185;-58
2022/11/12 00:40:25;;;;;;;13.37;12.27;;;;;;;11.64;100.00;-18097.94;5072477;28;20284;-58
2022/11/12 00:42:52;;;;;;;12.23;11.33;;;;;;;11.71;100.00;-18099.63;5072479;28;20196;-58
2022/11/12 00:45:19;;;;;;;12.43;11.50;;;;;;;11.62;100.00;-18097.56;5072724;28;20185;-57
2022/11/12 00:47:46;;;;;;;13.90;12.63;;;;;;;11.44;100.00;-18093.34;5072893;28;20204;-58
2022/11/12 00:50:14;;;;;;;12.73;11.53;;;;;;;11.71;100.00;-18099.63;5072321;28;20195;-58
2022/11/12 00:52:41;;;;;;;12.83;11.83;;;;;;;11.71;100.00;-18099.63;5072541;28;20189;-58
2022/11/12 00:55:10;;;;;;;13.07;11.87;;;;;;;11.68;100.00;-18098.91;5072177;28;20196;-58
2022/11/12 00:57:37;;;;;;;13.07;11.83;;;;;;;11.76;100.00;-18100.84;5072125;28;20193;-58
2022/11/12 01:00:06;;;;;;;14.30;13.00;;;;;;;11.77;100.00;-18101.19;5072109;28;20209;-58
2022/11/12 01:02:33;;;;;;;12.93;12.03;;;;;;;11.66;100.00;-18098.41;5072312;28;20275;-58
2022/11/12 01:05:00;;;;;;;13.23;12.00;;;;;;;11.68;100.00;-18098.91;5072302;28;20181;-58
2022/11/12 01:07:27;;;;;;;13.80;12.47;;;;;;;11.71;100.00;-18099.75;5072331;28;20192;-58
2022/11/12 01:09:54;;;;;;;13.30;12.07;;;;;;;11.72;100.00;-18100.00;5072298;28;20559;-57
2022/11/12 01:12:23;;;;;;;14.07;12.90;;;;;;;11.77;100.00;-18101.09;5072063;28;20191;-57
2022/11/12 01:14:49;;;;;;;14.50;13.10;;;;;;;11.76;100.00;-18100.84;5072000;28;20180;-58
2022/11/12 01:17:16;;;;;;;13.83;12.83;;;;;;;11.67;100.00;-18098.78;5071898;28;20189;-58
2022/11/12 01:19:43;;;;;;;14.00;12.73;;;;;;;11.63;100.00;-18097.81;5072178;28;20204;-58
2022/11/12 01:22:11;;;;;;;13.43;12.43;;;;;;;11.57;100.00;-18096.38;5072130;28;20662;-57
2022/11/12 01:24:38;;;;;;;14.97;13.60;;;;;;;11.59;100.00;-18096.72;5072134;28;20188;-58
2022/11/12 01:27:05;;;;;;;15.73;14.23;;;;;;;11.56;100.00;-18096.13;5072650;28;20192;-58
2022/11/12 01:29:33;;;;;;;15.03;13.73;;;;;;;11.56;100.00;-18096.00;5071907;28;20191;-58
2022/11/12 01:32:00;;;;;;;14.70;13.27;;;;;;;11.53;100.00;-18095.41;5071615;28;20235;-57
2022/11/12 01:34:27;;;;;;;14.13;12.73;;;;;;;11.57;100.00;-18096.38;5071998;28;20212;-58
2022/11/12 01:36:54;;;;;;;14.47;13.33;;;;;;;11.56;100.00;-18096.00;5071714;28;20189;-58
2022/11/12 01:39:21;;;;;;;13.63;12.23;;;;;;;11.59;100.00;-18096.72;5071581;28;20204;-58
2022/11/12 01:41:47;;;;;;;13.03;11.93;;;;;;;11.62;100.00;-18097.47;5072056;28;20188;-58
2022/11/12 01:44:18;;;;;;;13.73;12.43;;;;;;;11.59;100.00;-18096.72;5071639;28;20193;-59
2022/11/12 01:47:00;;;;;;;12.03;11.13;;;;;;;11.44;100.00;-18093.34;5071945;28;20623;-57
2022/11/12 01:49:31;;;;;;;12.80;11.83;;;;;;;11.53;100.00;-18095.28;5074689;28;20188;-58
2022/11/12 01:52:08;;;;;;;13.80;12.47;;;;;;;11.57;100.00;-18096.38;5076104;28;20192;-58
2022/11/12 01:54:36;;;;;;;12.70;11.83;;;;;;;11.57;100.00;-18096.25;5076062;28;20221;-58
2022/11/12 01:57:03;;;;;;;12.70;11.57;;;;;;;11.65;100.00;-18098.19;5075947;28;20662;-57
2022/11/12 01:59:37;;;;;;;12.80;11.80;;;;;;;11.58;100.00;-18096.50;5075828;28;20658;-58
2022/11/12 02:02:06;;;;;;;13.70;12.20;;;;;;;11.61;100.00;-18097.34;5075676;28;20191;-59
2022/11/12 02:04:34;;;;;;;12.93;11.73;;;;;;;11.65;100.00;-18098.19;5075991;28;20189;-59
2022/11/12 02:07:03;;;;;;;13.23;12.13;;;;;;;11.66;100.00;-18098.53;5075731;28;20200;-58
2022/11/12 02:09:31;;;;;;;13.00;11.97;;;;;;;11.61;100.00;-18097.22;5075616;28;20199;-59
2022/11/12 02:11:59;;;;;;;12.77;11.73;;;;;;;11.60;100.00;-18096.97;5075676;28;20554;-58
2022/11/12 02:14:25;;;;;;;13.33;12.13;;;;;;;11.68;100.00;-18098.91;5075528;28;20195;-58
2022/11/12 02:16:53;;;;;;;13.30;12.30;;;;;;;11.67;100.00;-18098.78;5075575;28;20520;-57
2022/11/12 02:19:21;;;;;;;13.03;11.93;;;;;;;11.53;100.00;-18095.41;5075567;28;20679;-58
2022/11/12 02:21:50;;;;;;;13.63;12.37;;;;;;;11.63;100.00;-18097.69;5075203;28;20242;-57
2022/11/12 02:24:35;;;;;;;12.37;11.47;;;;;;;11.62;100.00;-18097.56;5075241;28;20195;-58
2022/11/12 02:27:05;;;;;;;13.33;12.13;;;;;;;11.57;100.00;-18096.25;5075171;28;20220;-58
2022/11/12 02:29:33;;;;;;;12.50;11.20;;;;;;;11.58;100.00;-18096.50;5075471;28;20189;-58
2022/11/12 02:32:00;;;;;;;10.47;9.77;;;;;;;11.62;100.00;-18097.47;5075154;28;20699;-58
2022/11/12 02:34:27;;;;;;;11.73;10.83;;;;;;;11.54;100.00;-18095.53;5075394;28;20632;-58
2022/11/12 02:36:55;;;;;;;10.80;10.10;;;;;;;11.54;100.00;-18093.66;5075181;28;20631;-58
2022/11/12 02:39:22;;;;;;;11.50;10.57;;;;;;;11.45;100.00;-18091.63;5074837;28;20208;-58
2022/11/12 02:41:49;;;;;;;12.93;11.93;;;;;;;11.51;100.00;-18093.06;5075359;28;20624;-58
2022/11/12 02:44:15;;;;;;;12.10;11.10;;;;;;;11.48;100.00;-18092.22;5074901;28;20200;-58
2022/11/12 02:46:42;;;;;;;11.80;10.97;;;;;;;11.50;100.00;-18092.69;5074980;28;20202;-58
2022/11/12 02:49:09;;;;;;;12.63;11.63;;;;;;;11.48;100.00;-18092.34;5074944;28;20208;-59
2022/11/12 02:51:36;;;;;;;13.47;12.43;;;;;;;11.40;100.00;-18090.41;5074668;28;20194;-59
2022/11/12 02:54:05;;;;;;;14.17;12.80;;;;;;;11.55;100.00;-18094.03;5074993;28;20623;-57
2022/11/12 02:56:31;;;;;;;13.37;12.17;;;;;;;11.66;100.00;-18096.56;5074547;28;20197;-58
2022/11/12 02:58:58;;;;;;;14.13;12.83;;;;;;;11.61;100.00;-18097.22;5074401;28;20204;-58
2022/11/12 03:01:25;;;;;;;13.70;12.60;;;;;;;11.62;100.00;-18097.47;5073303;28;20199;-58
2022/11/12 03:03:52;;;;;;;13.43;12.10;;;;;;;11.52;100.00;-18095.03;5074731;28;20267;-58
2022/11/12 03:06:19;;;;;;;12.00;11.00;;;;;;;11.35;100.00;-18091.06;5057820;28;20283;-58
2022/11/12 03:08:46;;;;;;;11.90;11.17;;;;;;;11.24;100.00;-18088.41;5074621;28;20180;-58
2022/11/12 03:11:16;;;;;;;11.50;10.70;;;;;;;11.51;100.00;-18093.06;5074269;28;20185;-58
2022/11/12 03:13:43;;;;;;;14.07;12.87;;;;;;;11.54;100.00;-18093.78;5074216;28;20185;-58
2022/11/12 03:16:10;;;;;;;15.47;13.97;;;;;;;11.62;100.00;-18097.56;5075074;28;20189;-58
2022/11/12 03:18:37;;;;;;;14.93;13.40;;;;;;;11.61;100.00;-18097.22;5074346;28;20185;-58
2022/11/12 03:21:05;;;;;;;14.47;13.07;;;;;;;11.62;100.00;-18097.47;5074314;28;20189;-58
2022/11/12 03:23:32;;;;;;;14.13;12.93;;;;;;;11.54;100.00;-18095.53;5074148;28;20575;-58
2022/11/12 03:26:01;;;;;;;13.10;11.90;;;;;;;11.53;100.00;-18095.28;5074284;28;20559;-60
2022/11/12 03:28:30;;;;;;;13.43;12.13;;;;;;;11.62;100.00;-18097.47;5073977;28;20284;-58
2022/11/12 03:30:58;;;;;;;12.63;11.63;;;;;;;11.68;100.00;-18098.91;5073987;28;20189;-58
2022/11/12 03:33:26;;;;;;;13.27;12.20;;;;;;;11.61;100.00;-18097.22;5074194;28;20238;-58
2022/11/12 03:35:53;;;;;;;11.97;11.17;;;;;;;11.55;100.00;-18095.88;5074094;28;20639;-60
2022/11/12 03:38:20;;;;;;;13.53;12.33;;;;;;;11.61;100.00;-18097.22;5073747;28;20185;-58
2022/11/12 03:40:47;;;;;;;12.53;11.70;;;;;;;11.67;100.00;-18098.78;5074355;28;20222;-57
2022/11/12 03:43:14;;;;;;;11.60;10.90;;;;;;;11.74;100.00;-18100.34;5073684;28;20193;-58
2022/11/12 03:45:42;;;;;;;12.40;11.50;;;;;;;11.73;100.00;-18100.25;5073608;28;20263;-58
2022/11/12 03:48:09;;;;;;;13.17;12.17;;;;;;;11.65;100.00;-18098.19;5073504;28;20223;-58
2022/11/12 03:50:36;;;;;;;13.93;12.83;;;;;;;11.50;100.00;-18094.69;5073493;28;20187;-58
2022/11/12 03:53:03;;;;;;;13.83;12.57;;;;;;;11.57;100.00;-18096.25;5073895;28;20194;-58
2022/11/12 03:55:30;;;;;;;14.13;12.53;;;;;;;11.48;100.00;-18094.19;5073767;28;20201;-58
2022/11/12 03:57:58;;;;;;;13.90;12.60;;;;;;;11.54;100.00;-18095.66;5073760;28;20204;-58
2022/11/12 04:00:27;;;;;;;12.33;11.30;;;;;;;11.50;100.00;-18094.56;5073532;28;20205;-58
2022/11/12 04:02:56;;;;;;;11.97;11.17;;;;;;;11.39;100.00;-18092.03;5073533;28;20204;-58
2022/11/12 04:10:57;;;;;;;11.90;10.97;;;;;;;11.58;100.00;-18096.63;5073248;28;20177;-58
2022/11/12 04:13:29;;;;;;;11.43;10.67;;;;;;;11.56;100.00;-18096.13;5073431;28;20582;-58
2022/11/12 04:21:50;;;;;;;13.90;12.33;;;;;;;11.39;100.00;-18092.03;5073049;28;20180;-57
2022/11/12 04:27:03;;;;;;;12.80;11.70;;;;;;;11.36;100.00;-18091.44;5072865;28;20180;-58
2022/11/12 04:32:14;;;;;;;12.80;11.50;;;;;;;11.36;100.00;-18091.44;5072819;28;20280;-58
2022/11/12 04:34:43;;;;;;;11.93;11.03;;;;;;;11.33;100.00;-18090.59;5072672;28;20189;-58
2022/11/12 04:37:10;;;;;;;12.87;11.70;;;;;;;11.27;100.00;-18089.13;5072649;28;20184;-57
2022/11/12 04:39:37;;;;;;;13.27;12.17;;;;;;;11.31;100.00;-18090.22;5072728;28;20595;-57
2022/11/12 04:45:00;;;;;;;12.90;11.83;;;;;;;11.30;100.00;-18089.97;5073250;28;20192;-57
2022/11/12 04:47:29;;;;;;;14.10;12.73;;;;;;;11.36;100.00;-18091.44;5072921;28;20200;-57
2022/11/12 04:49:57;;;;;;;13.80;12.60;;;;;;;11.30;100.00;-18089.97;5072614;28;20685;-57
2022/11/12 04:52:25;;;;;;;14.00;12.80;;;;;;;11.36;100.00;-18091.31;5072672;28;20550;-58
2022/11/12 04:54:53;;;;;;;14.00;13.00;;;;;;;11.33;100.00;-18090.69;5072425;28;20188;-58
2022/11/12 04:57:20;;;;;;;13.30;12.20;;;;;;;11.33;100.00;-18090.69;5056819;28;20192;-58
2022/11/12 04:59:48;;;;;;;15.97;13.33;;;;;;;11.34;100.00;-18090.94;5072226;28;20204;-58
2022/11/12 05:02:15;;;;;;;14.83;13.27;;;;;;;11.38;100.00;-18091.91;5072416;28;20192;-59
2022/11/12 05:04:42;;;;;;;15.57;14.03;;;;;;;11.33;100.00;-18090.69;5054713;28;20211;-57
2022/11/12 05:07:10;;;;;;;13.57;12.33;;;;;;;11.49;100.00;-18094.31;5072034;28;20185;-57
2022/11/12 05:09:38;;;;;;;13.87;12.67;;;;;;;11.54;100.00;-18095.53;5072327;28;20551;-58
2022/11/12 05:12:05;;;;;;;14.70;13.40;;;;;;;11.52;100.00;-18095.03;5071990;28;20188;-58
2022/11/12 05:14:32;;;;;;;14.40;13.07;;;;;;;11.50;100.00;-18094.56;5072053;28;20189;-58
2022/11/12 05:16:59;;;;;;;14.97;13.60;;;;;;;11.50;100.00;-18094.69;5072114;28;20628;-57
2022/11/12 05:19:26;;;;;;;14.27;13.07;;;;;;;11.58;100.00;-18096.63;5072067;28;20601;-58
2022/11/12 05:22:05;;;;;;;13.00;11.90;;;;;;;11.54;100.00;-18095.66;5072720;28;20185;-57
2022/11/12 05:24:38;;;;;;;13.97;12.87;;;;;;;11.58;100.00;-18096.50;5071548;28;20195;-58
2022/11/12 05:27:07;;;;;;;13.87;12.43;;;;;;;11.37;100.00;-18091.66;5072250;28;20567;-58
2022/11/12 05:29:34;;;;;;;13.23;12.13;;;;;;;11.56;100.00;-18096.00;5072027;28;20187;-58
2022/11/12 05:32:01;;;;;;;13.73;12.23;;;;;;;11.43;100.00;-18093.13;5071831;28;20228;-58
2022/11/12 05:34:28;;;;;;;14.17;12.90;;;;;;;11.68;100.00;-18098.91;5071996;28;20191;-59
2022/11/12 05:36:55;;;;;;;13.53;12.57;;;;;;;11.86;100.00;-18103.25;5071825;28;20195;-58
2022/11/12 05:39:22;;;;;;;14.37;12.73;;;;;;;11.88;100.00;-18103.84;5071597;28;20189;-58
2022/11/12 05:41:51;;;;;;;13.67;12.47;;;;;;;11.64;100.00;-18097.94;5071963;28;20184;-58
2022/11/12 05:44:19;;;;;;;14.00;12.50;;;;;;;11.93;100.00;-18104.81;5071940;28;20576;-57
2022/11/12 05:46:46;;;;;;;14.13;12.63;;;;;;;11.86;100.00;-18103.25;5071735;28;20208;-58
2022/11/12 05:49:13;;;;;;;12.43;11.27;;;;;;;12.04;100.00;-18107.59;5072017;28;20185;-58
2022/11/12 05:51:40;;;;;;;10.67;9.97;;;;;;;11.91;100.00;-18104.47;5071579;28;20191;-58
2022/11/12 05:54:07;;;;;;;11.63;10.83;;;;;;;12.02;100.00;-18107.09;5071578;28;20195;-57
2022/11/12 05:56:34;;;;;;;10.33;9.73;;;;;;;11.77;100.00;-18101.09;5071664;28;20194;-57
2022/11/12 05:59:05;;;;;;;10.63;9.80;;;;;;;11.85;100.00;-18103.13;5071839;28;20657;-59
2022/11/12 06:01:32;;;;;;;9.43;8.93;;;;;;;11.87;100.00;-18103.63;5071943;28;20204;-59
2022/11/12 06:03:59;;;;;;;10.43;9.73;;;;;;;11.89;100.00;-18103.97;5071792;28;20278;-58
2022/11/12 06:06:26;;;;;;;10.23;9.63;;;;;;;11.80;100.00;-18101.91;5071487;28;20192;-58
2022/11/12 06:08:53;;;;;;;10.07;9.17;;;;;;;11.55;100.00;-18095.88;5071808;28;20571;-59
2022/11/12 06:11:20;;;;;;;10.00;9.20;;;;;;;11.89;100.00;-18103.97;5071427;28;20181;-58
2022/11/12 06:13:46;;;;;;;10.10;9.50;;;;;;;11.90;100.00;-18104.22;5071655;28;20650;-59
2022/11/12 06:16:15;;;;;;;9.77;9.17;;;;;;;12.03;100.00;-18107.22;5071697;28;20639;-58
2022/11/12 06:18:42;;;;;;;11.20;10.50;;;;;;;12.04;100.00;-18107.47;5071708;28;20686;-58
2022/11/12 06:21:21;;;;;;;10.17;9.60;;;;;;;11.86;100.00;-18103.25;5071489;28;20209;-58
2022/11/12 06:23:50;;;;;;;10.83;10.07;;;;;;;11.91;100.00;-18104.47;5071259;28;20180;-57
2022/11/12 06:26:17;;;;;;;8.70;8.30;;;;;;;11.70;100.00;-18099.38;5071571;28;20246;-57
2022/11/12 06:28:44;;;;;;;9.67;9.17;;;;;;;11.87;100.00;-18103.50;5071434;28;20583;-58
2022/11/12 06:31:11;;;;;;;9.47;8.87;;;;;;;11.90;100.00;-18104.34;5070993;28;20271;-58
2022/11/12 06:33:39;;;;;;;9.70;9.20;;;;;;;12.10;100.00;-18109.03;5071454;28;20643;-57
2022/11/12 06:36:07;;;;;;;9.33;8.60;;;;;;;12.05;100.00;-18107.72;5074527;28;20193;-58
2022/11/12 06:38:36;;;;;;;9.70;9.20;;;;;;;12.07;100.00;-18108.19;5074885;28;20276;-58
2022/11/12 06:41:04;;;;;;;10.60;9.90;;;;;;;12.12;100.00;-18109.41;5075105;28;20570;-58
2022/11/12 06:43:32;;;;;;;10.13;9.43;;;;;;;12.03;100.00;-18107.34;5057355;28;20242;-58
2022/11/12 06:46:00;;;;;;;9.20;8.70;;;;;;;12.13;100.00;-18109.75;5074664;28;20195;-58
2022/11/12 06:48:28;;;;;;;9.70;9.10;;;;;;;12.14;100.00;-18110.00;5075053;28;20184;-58
2022/11/12 06:50:57;;;;;;;9.50;9.00;;;;;;;12.13;100.00;-18109.66;5074732;28;20369;-58
2022/11/12 06:53:24;;;;;;;8.47;8.07;;;;;;;12.00;100.00;-18106.50;5074687;28;20197;-58
2022/11/12 06:55:52;;;;;;;9.00;8.43;;;;;;;12.19;100.00;-18111.22;5074878;28;20705;-58
2022/11/12 06:58:19;;;;;;;8.87;8.47;;;;;;;12.21;100.00;-18111.69;5074588;28;20185;-58
2022/11/12 07:00:46;;;;;;;10.73;9.70;;;;;;;12.23;100.00;-18112.19;5074340;28;20205;-58
2022/11/12 07:03:15;;;;;;;9.83;9.33;;;;;;;12.17;100.00;-18110.59;5074424;28;20195;-59
2022/11/12 07:05:42;;;;;;;10.87;10.17;;;;;;;12.06;100.00;-18107.94;5074347;28;20188;-58
2022/11/12 07:08:10;;;;;;;11.57;10.53;;;;;;;12.18;100.00;-18110.84;5074285;28;20181;-58
2022/11/12 07:10:37;;;;;;;10.33;9.73;;;;;;;12.11;100.00;-18109.16;5074630;28;20188;-57
2022/11/12 07:13:04;;;;;;;10.90;10.30;;;;;;;12.10;100.00;-18109.03;5074416;28;20195;-58
2022/11/12 07:15:31;;;;;;;10.90;10.30;;;;;;;12.07;100.00;-18108.31;5074202;28;20272;-58
2022/11/12 07:17:58;;;;;;;10.67;10.10;;;;;;;12.16;100.00;-18110.38;5056789;28;20207;-58
2022/11/12 07:20:24;;;;;;;10.73;10.13;;;;;;;12.09;100.00;-18108.81;5075194;28;20204;-58
2022/11/12 07:22:51;;;;;;;11.47;10.60;;;;;;;12.05;100.00;-18105.84;5074473;28;20635;-58
2022/11/12 07:25:20;;;;;;;11.77;10.77;;;;;;;11.88;100.00;-18101.88;5065810;28;20199;-58
2022/11/12 07:27:48;;;;;;;12.20;11.47;;;;;;;11.97;100.00;-18104.03;5074002;28;20203;-58
2022/11/12 07:30:16;;;;;;;12.10;11.40;;;;;;;12.04;100.00;-18105.59;5074401;28;20627;-58
2022/11/12 07:32:43;;;;;;;10.97;10.27;;;;;;;11.89;100.00;-18102.09;5073912;28;20228;-58
2022/11/12 07:35:09;;;;;;;10.73;10.13;;;;;;;11.76;100.00;-18098.97;5056154;28;20184;-58
2022/11/12 07:37:36;;;;;;;12.00;11.20;;;;;;;11.75;100.00;-18100.59;5073851;28;20195;-58
2022/11/12 07:40:04;;;;;;;11.63;10.63;;;;;;;11.75;100.00;-18098.84;5074052;28;20242;-57
2022/11/12 07:42:34;;;;;;;10.73;9.70;;;;;;;11.66;100.00;-18096.56;5074491;28;20199;-58
2022/11/12 07:45:01;;;;;;;11.53;10.80;;;;;;;11.80;100.00;-18099.94;5074129;28;20185;-58
2022/11/12 07:47:28;;;;;;;12.33;11.50;;;;;;;11.77;100.00;-18099.34;5073559;28;20211;-58
2022/11/12 07:49:55;;;;;;;11.83;11.03;;;;;;;11.84;100.00;-18102.75;5074052;28;20188;-59
2022/11/12 07:52:23;;;;;;;12.10;11.27;;;;;;;11.86;100.00;-18101.38;5074490;28;20204;-58
2022/11/12 07:54:50;;;;;;;12.30;11.47;;;;;;;11.86;100.00;-18103.38;5073726;28;20184;-58
2022/11/12 07:57:17;;;;;;;11.73;10.87;;;;;;;11.95;100.00;-18103.56;5073998;28;20193;-58
2022/11/12 07:59:45;;;;;;;11.77;10.87;;;;;;;12.07;100.00;-18106.44;5074209;28;20185;-59
2022/11/12 08:02:12;;;;;;;10.60;9.90;;;;;;;12.17;100.00;-18108.75;5073891;28;20188;-58
2022/11/12 08:04:39;;;;;;;9.97;9.23;;;;;;;12.25;100.00;-18110.66;5056302;28;20184;-57
2022/11/12 08:07:06;;;;;;;9.87;9.07;;;;;;;12.34;100.00;-18112.84;5073236;28;20197;-59
2022/11/12 08:09:33;;;;;;;8.83;8.23;;;;;;;12.36;100.00;-18113.44;5073169;28;20196;-58
2022/11/12 08:12:00;;;;;;;8.50;8.10;;;;;;;12.35;100.00;-18113.19;5073160;28;20255;-58
2022/11/12 08:14:27;;;;;;;7.83;7.43;;;;;;;12.38;100.00;-18113.69;5073187;28;20192;-58
2022/11/12 08:16:55;;;;;;;7.50;7.10;;;;;;;12.44;100.00;-18115.13;5073406;28;20211;-58
2022/11/12 08:19:22;;;;;;;6.70;6.40;;;;;;;12.52;100.00;-18117.06;5073159;28;20641;-58
2022/11/12 08:21:49;;;;;;;5.83;5.53;;;;;;;12.59;100.00;-18118.75;5073694;28;20220;-58
2022/11/12 08:24:16;;;;;;;6.43;6.13;;;;;;;12.63;100.00;-18119.72;5072949;28;20193;-58
2022/11/12 08:26:42;;;;;;;5.40;5.20;;;;;;;12.72;100.00;-18121.88;5072856;28;20279;-58
2022/11/12 08:29:09;;;;;;;5.90;5.60;;;;;;;12.58;100.00;-18118.50;5073049;28;20537;-57
2022/11/12 08:31:36;;;;;;;5.63;5.33;;;;;;;12.83;100.00;-18124.66;5072866;28;20669;-58
2022/11/12 08:34:10;;;;;;;5.20;5.00;;;;;;;12.95;100.00;-18127.41;5072997;28;20185;-58
2022/11/12 08:36:39;;;;;;;5.93;5.60;;;;;;;13.11;100.00;-18131.16;5073251;28;20198;-58
2022/11/12 08:39:06;;;;;;;6.40;6.10;;;;;;;13.18;100.00;-18132.97;5072596;28;20189;-58
2022/11/12 08:41:33;;;;;;;5.93;5.70;;;;;;;13.27;100.00;-18137.00;5072449;28;20224;-57
2022/11/12 08:44:00;;;;;;;6.30;5.90;;;;;;;13.38;100.00;-18139.53;5072490;28;20200;-59
2022/11/12 08:46:27;;;;;;;6.23;5.93;;;;;;;13.44;100.00;-18140.97;5072550;28;20201;-57
2022/11/12 08:48:54;;;;;;;6.37;6.07;;;;;;;13.36;100.00;-18138.91;5072242;28;20191;-58
2022/11/12 08:51:22;;;;;;;6.70;6.20;;;;;;;13.37;100.00;-18139.16;5072350;28;20185;-57
2022/11/12 08:53:49;;;;;;;6.73;6.43;;;;;;;13.29;100.00;-18137.34;5072643;28;20185;-58
2022/11/12 08:56:16;;;;;;;6.67;6.37;;;;;;;13.28;100.00;-18137.13;5072580;28;20184;-58
2022/11/12 08:58:43;;;;;;;7.00;6.70;;;;;;;13.03;100.00;-18131.22;5071452;28;20188;-58
2022/11/12 09:01:10;;;;;;;6.83;6.53;;;;;;;13.12;100.00;-18133.38;5072765;28;20687;-58
2022/11/12 09:03:37;;;;;;;7.47;7.00;;;;;;;13.25;100.00;-18136.50;5072188;28;20187;-58
2022/11/12 09:06:05;;;;;;;7.40;7.00;;;;;;;13.43;100.00;-18140.59;5072375;28;20533;-58
2022/11/12 09:08:35;;;;;;;7.53;7.23;;;;;;;13.50;100.00;-18142.28;5072404;28;20184;-57
2022/11/12 09:11:02;;;;;;;7.70;7.30;;;;;;;13.72;100.00;-18147.72;5072304;28;20181;-59
2022/11/12 09:13:29;;;;;;;7.97;7.47;;;;;;;13.85;100.00;-18150.72;5071990;28;20185;-59
2022/11/12 09:16:00;;;;;;;7.70;7.27;;;;;;;14.42;100.00;-18162.31;5072250;28;20275;-58
2022/11/12 09:18:27;;;;;;;6.93;6.63;;;;;;;15.57;100.00;-2134.88;5071998;28;20185;-58
2022/11/12 09:20:54;;;;;;;6.70;6.40;;;;;;;17.55;100.00;29015.09;5072103;28;20209;-58
2022/11/12 09:23:21;;;;;;;6.37;6.00;;;;;;;19.33;100.00;150895.41;5072138;28;20216;-58
2022/11/12 09:25:49;;;;;;;7.10;6.70;;;;;;;19.33;100.00;150895.41;5071782;28;20192;-59
2022/11/12 09:28:18;;;;;;;5.72;5.43;;;;;;;23.07;100.00;151839.81;5072220;28;20563;-59
2022/11/12 09:30:47;;;;;;;5.88;5.68;;;;;;;23.32;100.00;151902.31;5072054;28;20176;-60
2022/11/12 09:33:14;;;;;;;5.15;4.85;;;;;;;22.62;100.00;151724.94;5071700;28;20246;-59
2022/11/12 09:35:41;;;;;;;5.03;4.82;;;;;;;20.45;100.00;151179.38;5071670;28;20184;-58
2022/11/12 09:38:08;;;;;;;5.40;5.18;;;;;;;20.58;100.00;151211.19;5071998;28;20192;-59
2022/11/12 09:40:56;;;;;;;5.43;5.15;;;;;;;19.99;100.00;151063.47;5071623;28;20570;-59
2022/11/12 09:43:27;;;;;;;5.28;5.00;;;;;;;20.78;100.00;151262.19;5071706;28;20242;-59
2022/11/12 09:45:56;;;;;;;4.87;4.67;;;;;;;20.69;100.00;151237.97;5071834;28;20184;-58
2022/11/12 09:48:29;;;;;;;5.50;5.20;;;;;;;20.03;100.00;151073.63;5072063;28;20185;-59
2022/11/12 09:51:00;;;;;;;6.00;5.63;;;;;;;18.20;100.00;150612.97;5071870;28;20207;-57
2022/11/12 09:53:35;;;;;;;5.63;5.43;;;;;;;17.82;100.00;150515.13;5071784;28;20185;-58
2022/11/12 09:56:06;;;;;;;5.80;5.50;;;;;;;17.07;100.00;150326.97;5071859;28;20198;-58
2022/11/12 09:58:33;;;;;;;6.63;6.13;;;;;;;16.90;100.00;143087.38;5071838;28;20493;-58
2022/11/12 10:01:06;;;;;;;6.80;6.13;;;;;;;16.71;100.00;111011.75;5071638;28;20208;-58
2022/11/12 10:03:40;;;;;;;5.47;5.07;;;;;;;16.37;100.00;91010.25;5053998;28;20181;-59
2022/11/12 10:06:12;;;;;;;6.90;6.40;;;;;;;16.06;100.00;58987.94;5071499;28;20188;-58
2022/11/12 10:08:48;;;;;;;6.70;6.40;;;;;;;16.20;100.00;47535.66;5071683;28;20639;-58
2022/11/12 10:12:30;;;;;;;7.77;6.97;;;;;;;16.24;100.00;46884.84;5075628;28;20601;-58
2022/11/12 10:14:33;;;;;;;6.60;6.20;;;;;;;16.24;100.00;49829.75;5075395;28;20560;-58
2022/11/12 10:17:07;;;;;;;6.67;6.20;;;;;;;16.06;100.00;41643.41;5075472;28;20187;-58
2022/11/12 10:19:55;;;;;;;8.97;8.13;;;;;;;16.19;100.00;32198.19;5075696;28;20185;-57
2022/11/12 10:22:37;;;;;;;9.20;8.60;;;;;;;16.04;100.00;28285.97;5075517;28;20204;-57
2022/11/12 10:25:14;;;;;;;9.70;9.00;;;;;;;16.10;100.00;26663.75;5075496;28;20278;-58
2022/11/12 10:27:43;;;;;;;9.40;8.90;;;;;;;16.11;100.00;22442.34;5074919;28;20184;-58
2022/11/12 10:30:15;;;;;;;9.80;9.03;;;;;;;16.12;100.00;20495.66;5075122;28;20200;-58
2022/11/12 10:32:44;;;;;;;9.20;8.37;;;;;;;15.97;100.00;18220.63;5075537;28;20220;-59
2022/11/12 10:35:13;;;;;;;9.57;8.67;;;;;;;15.78;100.00;12064.03;5075253;28;20536;-58
2022/11/12 10:37:45;;;;;;;10.20;9.50;;;;;;;15.83;100.00;12388.59;5075310;28;20528;-58
2022/11/12 10:40:34;;;;;;;9.67;9.03;;;;;;;15.86;100.00;10772.56;5057341;28;20223;-58
2022/11/12 10:43:05;;;;;;;10.17;9.57;;;;;;;15.62;100.00;8828.56;5075147;28;20662;-58
2022/11/12 10:45:32;;;;;;;10.10;9.40;;;;;;;15.80;100.00;7217.09;5075558;28;20193;-57
2022/11/12 10:47:59;;;;;;;9.97;9.33;;;;;;;16.64;100.00;21489.75;5075120;28;20215;-59
2022/11/12 10:50:31;;;;;;;8.37;7.87;;;;;;;18.48;100.00;76735.44;5074744;28;20189;-58
2022/11/12 10:53:00;;;;;;;8.70;8.00;;;;;;;20.00;100.00;151066.00;5074650;28;20192;-58
2022/11/12 10:55:29;;;;;;;7.70;7.30;;;;;;;20.34;100.00;151151.38;5074655;28;20189;-59
2022/11/12 10:58:18;;;;;;;7.53;7.13;;;;;;;20.30;100.00;151141.19;5074809;28;20189;-59
2022/11/12 11:00:57;;;;;;;9.13;8.63;;;;;;;19.77;100.00;151006.19;5074444;28;20228;-58
2022/11/12 11:03:27;;;;;;;8.47;8.07;;;;;;;19.34;100.00;150899.25;5074769;28;20194;-58
2022/11/12 11:05:57;;;;;;;9.23;8.73;;;;;;;19.01;100.00;150815.28;5074500;28;20189;-59
2022/11/12 11:08:38;;;;;;;19.37;11.10;;;;;;;19.80;100.00;151013.81;5074705;28;20184;-58
2022/11/12 11:11:18;;;;;;;9.40;8.90;;;;;;;20.16;100.00;151104.19;5074308;28;20189;-58
2022/11/12 11:13:47;;;;;;;10.27;9.67;;;;;;;20.16;100.00;151104.19;5074640;28;20203;-58
2022/11/12 11:16:16;;;;;;;9.67;9.10;;;;;;;19.83;100.00;151021.44;5074080;28;20189;-58
2022/11/12 11:18:46;;;;;;;9.33;8.63;;;;;;;18.90;100.00;150788.53;5074170;28;20190;-57
2022/11/12 11:21:26;;;;;;;10.47;9.53;;;;;;;18.52;100.00;150693.16;5073010;28;20739;-58
2022/11/12 11:23:57;;;;;;;10.17;9.43;;;;;;;18.02;100.00;150567.22;5074173;28;20184;-58
2022/11/12 11:26:34;;;;;;;11.47;9.67;;;;;;;17.77;100.00;150504.97;5074554;28;20193;-59
2022/11/12 11:29:20;;;;;;;10.37;9.67;;;;;;;17.55;100.00;150447.69;5073872;28;20199;-58
2022/11/12 11:31:55;;;;;;;9.83;9.03;;;;;;;17.35;100.00;150398.16;5073875;28;20238;-58
2022/11/12 11:34:35;;;;;;;9.93;9.03;;;;;;;17.45;100.00;150422.25;5074177;28;20631;-58